Castelo do Piaui, Brazil
Current Conditions -  °F | °C
As of 2:00 PM on Monday 20 Oct 2014 (Local Time) from SBTE Reporting Station
Few Clouds Few Clouds  
Wind Chill: 100°   Ceiling: Unl
Heat Index: 105°   Visibility: 6mi
Dew Point: 66°   Wind: 7mph
Humidity: 33%   Direction: 250°WSW
Pressure: 29.74"   Gusts: NA
Location:  5.32°S, 41.55°W
Report Text: SBTE 201700Z 25006KT 9999 FEW040 38/19 Q1007
Loading
Personal Weather Stations






























Interactive Weather Map
Tropical Storm Tracking
New forecast layout! Learn more

10-Day Weather Forecast

Advertisements
Track Severe Weather on mobile